sensor_id;sensor_type;location;lat;lon;timestamp;P1;durP1;ratioP1;P2;durP2;ratioP2
6149;SDS011;3106;42.670;23.318;2023-06-14T00:01:41;12.97;;;7.20;;
6149;SDS011;3106;42.670;23.318;2023-06-14T00:04:10;9.70;;;7.20;;
6149;SDS011;3106;42.670;23.318;2023-06-14T00:06:37;9.67;;;6.93;;
6149;SDS011;3106;42.670;23.318;2023-06-14T00:09:06;12.17;;;6.90;;
6149;SDS011;3106;42.670;23.318;2023-06-14T00:11:33;9.30;;;6.10;;
6149;SDS011;3106;42.670;23.318;2023-06-14T00:14:00;10.17;;;6.60;;
6149;SDS011;3106;42.670;23.318;2023-06-14T00:16:30;10.83;;;6.50;;
6149;SDS011;3106;42.670;23.318;2023-06-14T00:18:58;9.30;;;6.63;;
6149;SDS011;3106;42.670;23.318;2023-06-14T00:21:24;8.07;;;6.50;;
6149;SDS011;3106;42.670;23.318;2023-06-14T00:23:54;11.43;;;5.90;;
6149;SDS011;3106;42.670;23.318;2023-06-14T00:26:21;13.90;;;6.60;;
6149;SDS011;3106;42.670;23.318;2023-06-14T00:28:48;9.23;;;6.13;;
6149;SDS011;3106;42.670;23.318;2023-06-14T00:31:14;10.23;;;6.27;;
6149;SDS011;3106;42.670;23.318;2023-06-14T00:33:43;9.10;;;6.37;;
6149;SDS011;3106;42.670;23.318;2023-06-14T00:36:10;10.20;;;6.50;;
6149;SDS011;3106;42.670;23.318;2023-06-14T00:38:36;9.97;;;6.57;;
6149;SDS011;3106;42.670;23.318;2023-06-14T00:41:03;7.67;;;5.97;;
6149;SDS011;3106;42.670;23.318;2023-06-14T00:43:30;7.73;;;5.70;;
6149;SDS011;3106;42.670;23.318;2023-06-14T00:45:56;11.20;;;6.90;;
6149;SDS011;3106;42.670;23.318;2023-06-14T00:48:23;12.03;;;5.73;;
6149;SDS011;3106;42.670;23.318;2023-06-14T00:50:52;9.50;;;6.80;;
6149;SDS011;3106;42.670;23.318;2023-06-14T00:53:19;8.00;;;6.30;;
6149;SDS011;3106;42.670;23.318;2023-06-14T00:55:48;9.87;;;5.73;;
6149;SDS011;3106;42.670;23.318;2023-06-14T00:58:15;6.80;;;5.40;;
6149;SDS011;3106;42.670;23.318;2023-06-14T01:00:42;6.70;;;5.40;;
6149;SDS011;3106;42.670;23.318;2023-06-14T01:03:09;9.03;;;5.23;;
6149;SDS011;3106;42.670;23.318;2023-06-14T01:05:37;10.70;;;5.87;;
6149;SDS011;3106;42.670;23.318;2023-06-14T01:08:13;12.13;;;5.97;;
6149;SDS011;3106;42.670;23.318;2023-06-14T01:10:52;12.80;;;6.17;;
6149;SDS011;3106;42.670;23.318;2023-06-14T01:13:23;15.10;;;6.50;;
6149;SDS011;3106;42.670;23.318;2023-06-14T01:15:54;9.43;;;6.10;;
6149;SDS011;3106;42.670;23.318;2023-06-14T01:18:22;6.93;;;5.50;;
6149;SDS011;3106;42.670;23.318;2023-06-14T01:20:49;7.97;;;5.97;;
6149;SDS011;3106;42.670;23.318;2023-06-14T01:23:21;9.43;;;6.23;;
6149;SDS011;3106;42.670;23.318;2023-06-14T01:25:49;9.70;;;6.40;;
6149;SDS011;3106;42.670;23.318;2023-06-14T01:28:18;6.90;;;5.73;;
6149;SDS011;3106;42.670;23.318;2023-06-14T01:30:47;9.30;;;6.20;;
6149;SDS011;3106;42.670;23.318;2023-06-14T01:33:19;9.10;;;5.90;;
6149;SDS011;3106;42.670;23.318;2023-06-14T01:35:47;7.40;;;5.80;;
6149;SDS011;3106;42.670;23.318;2023-06-14T01:38:17;6.57;;;5.60;;
6149;SDS011;3106;42.670;23.318;2023-06-14T01:40:46;8.17;;;5.70;;
6149;SDS011;3106;42.670;23.318;2023-06-14T01:43:16;8.67;;;5.63;;
6149;SDS011;3106;42.670;23.318;2023-06-14T01:45:44;10.97;;;5.33;;
6149;SDS011;3106;42.670;23.318;2023-06-14T01:48:13;10.13;;;6.20;;
6149;SDS011;3106;42.670;23.318;2023-06-14T01:50:40;11.30;;;5.50;;
6149;SDS011;3106;42.670;23.318;2023-06-14T01:53:08;10.33;;;6.23;;
6149;SDS011;3106;42.670;23.318;2023-06-14T01:55:35;10.70;;;6.10;;
6149;SDS011;3106;42.670;23.318;2023-06-14T01:58:04;14.17;;;6.33;;
6149;SDS011;3106;42.670;23.318;2023-06-14T02:00:31;10.40;;;6.37;;
6149;SDS011;3106;42.670;23.318;2023-06-14T02:02:58;7.63;;;6.00;;
6149;SDS011;3106;42.670;23.318;2023-06-14T02:05:24;9.03;;;6.00;;
6149;SDS011;3106;42.670;23.318;2023-06-14T02:07:51;7.70;;;5.40;;
6149;SDS011;3106;42.670;23.318;2023-06-14T02:10:19;9.20;;;6.20;;
6149;SDS011;3106;42.670;23.318;2023-06-14T02:12:46;10.23;;;6.40;;
6149;SDS011;3106;42.670;23.318;2023-06-14T02:15:14;7.93;;;5.90;;
6149;SDS011;3106;42.670;23.318;2023-06-14T02:17:44;7.10;;;5.70;;
6149;SDS011;3106;42.670;23.318;2023-06-14T02:20:12;11.03;;;6.53;;
6149;SDS011;3106;42.670;23.318;2023-06-14T02:22:39;8.87;;;7.17;;
6149;SDS011;3106;42.670;23.318;2023-06-14T02:25:06;8.37;;;6.60;;
6149;SDS011;3106;42.670;23.318;2023-06-14T02:27:34;11.50;;;6.73;;
6149;SDS011;3106;42.670;23.318;2023-06-14T02:30:00;8.30;;;6.40;;
6149;SDS011;3106;42.670;23.318;2023-06-14T02:32:28;10.43;;;6.93;;
6149;SDS011;3106;42.670;23.318;2023-06-14T02:34:55;10.33;;;6.77;;
6149;SDS011;3106;42.670;23.318;2023-06-14T02:37:22;8.50;;;6.80;;
6149;SDS011;3106;42.670;23.318;2023-06-14T02:39:49;11.17;;;7.63;;
6149;SDS011;3106;42.670;23.318;2023-06-14T02:42:15;11.90;;;7.07;;
6149;SDS011;3106;42.670;23.318;2023-06-14T02:44:42;11.57;;;7.33;;
6149;SDS011;3106;42.670;23.318;2023-06-14T02:47:10;12.43;;;6.97;;
6149;SDS011;3106;42.670;23.318;2023-06-14T02:49:38;11.80;;;7.60;;
6149;SDS011;3106;42.670;23.318;2023-06-14T02:52:05;11.10;;;7.00;;
6149;SDS011;3106;42.670;23.318;2023-06-14T02:54:34;9.00;;;7.20;;
6149;SDS011;3106;42.670;23.318;2023-06-14T02:57:01;12.03;;;7.37;;
6149;SDS011;3106;42.670;23.318;2023-06-14T02:59:28;8.80;;;7.17;;
6149;SDS011;3106;42.670;23.318;2023-06-14T03:01:55;11.47;;;7.73;;
6149;SDS011;3106;42.670;23.318;2023-06-14T03:04:21;9.70;;;7.67;;
6149;SDS011;3106;42.670;23.318;2023-06-14T03:06:52;13.27;;;7.57;;
6149;SDS011;3106;42.670;23.318;2023-06-14T03:09:18;15.17;;;7.77;;
6149;SDS011;3106;42.670;23.318;2023-06-14T03:11:46;11.00;;;7.20;;
6149;SDS011;3106;42.670;23.318;2023-06-14T03:14:12;23.83;;;7.90;;
6149;SDS011;3106;42.670;23.318;2023-06-14T03:16:39;14.30;;;8.67;;
6149;SDS011;3106;42.670;23.318;2023-06-14T03:19:07;9.30;;;6.67;;
6149;SDS011;3106;42.670;23.318;2023-06-14T03:21:34;9.90;;;7.10;;
6149;SDS011;3106;42.670;23.318;2023-06-14T03:24:03;13.97;;;6.93;;
6149;SDS011;3106;42.670;23.318;2023-06-14T03:26:30;11.63;;;7.47;;
6149;SDS011;3106;42.670;23.318;2023-06-14T03:28:59;9.47;;;6.70;;
6149;SDS011;3106;42.670;23.318;2023-06-14T03:31:26;9.30;;;6.40;;
6149;SDS011;3106;42.670;23.318;2023-06-14T03:33:57;10.20;;;6.77;;
6149;SDS011;3106;42.670;23.318;2023-06-14T03:36:24;9.70;;;7.10;;
6149;SDS011;3106;42.670;23.318;2023-06-14T03:38:51;11.90;;;7.43;;
6149;SDS011;3106;42.670;23.318;2023-06-14T03:41:19;10.60;;;6.20;;
6149;SDS011;3106;42.670;23.318;2023-06-14T03:43:46;10.00;;;7.07;;
6149;SDS011;3106;42.670;23.318;2023-06-14T03:46:12;16.13;;;7.23;;
6149;SDS011;3106;42.670;23.318;2023-06-14T03:48:39;13.17;;;7.10;;
6149;SDS011;3106;42.670;23.318;2023-06-14T03:51:06;13.30;;;6.60;;
6149;SDS011;3106;42.670;23.318;2023-06-14T03:53:32;8.67;;;6.80;;
6149;SDS011;3106;42.670;23.318;2023-06-14T03:56:01;11.20;;;6.83;;
6149;SDS011;3106;42.670;23.318;2023-06-14T03:58:29;8.33;;;6.30;;
6149;SDS011;3106;42.670;23.318;2023-06-14T04:00:55;8.07;;;6.40;;
6149;SDS011;3106;42.670;23.318;2023-06-14T04:03:22;9.20;;;6.73;;
6149;SDS011;3106;42.670;23.318;2023-06-14T04:05:50;11.27;;;7.13;;
6149;SDS011;3106;42.670;23.318;2023-06-14T04:08:17;9.67;;;6.40;;
6149;SDS011;3106;42.670;23.318;2023-06-14T04:10:44;10.73;;;7.13;;
6149;SDS011;3106;42.670;23.318;2023-06-14T04:13:11;25.00;;;7.70;;
6149;SDS011;3106;42.670;23.318;2023-06-14T04:15:39;16.43;;;8.37;;
6149;SDS011;3106;42.670;23.318;2023-06-14T04:18:08;15.93;;;7.63;;
6149;SDS011;3106;42.670;23.318;2023-06-14T04:20:35;13.33;;;7.60;;
6149;SDS011;3106;42.670;23.318;2023-06-14T04:23:11;14.80;;;7.40;;
6149;SDS011;3106;42.670;23.318;2023-06-14T04:25:38;12.23;;;8.33;;
6149;SDS011;3106;42.670;23.318;2023-06-14T04:28:05;11.90;;;8.03;;
6149;SDS011;3106;42.670;23.318;2023-06-14T04:30:33;18.90;;;7.50;;
6149;SDS011;3106;42.670;23.318;2023-06-14T04:33:05;9.53;;;7.10;;
6149;SDS011;3106;42.670;23.318;2023-06-14T04:35:31;9.73;;;7.67;;
6149;SDS011;3106;42.670;23.318;2023-06-14T04:38:00;17.13;;;8.13;;
6149;SDS011;3106;42.670;23.318;2023-06-14T04:40:29;14.70;;;7.30;;
6149;SDS011;3106;42.670;23.318;2023-06-14T04:42:56;19.23;;;7.93;;
6149;SDS011;3106;42.670;23.318;2023-06-14T04:45:23;11.20;;;8.03;;
6149;SDS011;3106;42.670;23.318;2023-06-14T04:47:56;15.73;;;8.80;;
6149;SDS011;3106;42.670;23.318;2023-06-14T04:50:26;13.00;;;8.53;;
6149;SDS011;3106;42.670;23.318;2023-06-14T04:52:54;13.37;;;8.23;;
6149;SDS011;3106;42.670;23.318;2023-06-14T04:55:21;13.77;;;7.93;;
6149;SDS011;3106;42.670;23.318;2023-06-14T04:57:49;10.47;;;8.40;;
6149;SDS011;3106;42.670;23.318;2023-06-14T05:00:18;16.13;;;8.43;;
6149;SDS011;3106;42.670;23.318;2023-06-14T05:02:46;12.00;;;8.63;;
6149;SDS011;3106;42.670;23.318;2023-06-14T05:05:16;14.60;;;9.07;;
6149;SDS011;3106;42.670;23.318;2023-06-14T05:07:44;14.57;;;8.23;;
6149;SDS011;3106;42.670;23.318;2023-06-14T05:10:11;12.63;;;8.60;;
6149;SDS011;3106;42.670;23.318;2023-06-14T05:12:38;14.13;;;9.70;;
6149;SDS011;3106;42.670;23.318;2023-06-14T05:15:05;11.83;;;9.20;;
6149;SDS011;3106;42.670;23.318;2023-06-14T05:17:33;15.00;;;9.70;;
6149;SDS011;3106;42.670;23.318;2023-06-14T05:20:01;15.23;;;9.73;;
6149;SDS011;3106;42.670;23.318;2023-06-14T05:22:28;15.07;;;10.53;;
6149;SDS011;3106;42.670;23.318;2023-06-14T05:24:56;15.77;;;10.50;;
6149;SDS011;3106;42.670;23.318;2023-06-14T05:27:23;15.77;;;10.90;;
6149;SDS011;3106;42.670;23.318;2023-06-14T05:29:50;19.60;;;9.63;;
6149;SDS011;3106;42.670;23.318;2023-06-14T05:32:20;13.73;;;9.73;;
6149;SDS011;3106;42.670;23.318;2023-06-14T05:34:47;13.60;;;10.10;;
6149;SDS011;3106;42.670;23.318;2023-06-14T05:37:14;22.33;;;10.40;;
6149;SDS011;3106;42.670;23.318;2023-06-14T05:39:41;25.47;;;11.00;;
6149;SDS011;3106;42.670;23.318;2023-06-14T05:42:09;22.13;;;11.13;;
6149;SDS011;3106;42.670;23.318;2023-06-14T05:44:36;27.43;;;10.90;;
6149;SDS011;3106;42.670;23.318;2023-06-14T05:47:02;22.10;;;11.70;;
6149;SDS011;3106;42.670;23.318;2023-06-14T05:49:29;19.20;;;11.53;;
6149;SDS011;3106;42.670;23.318;2023-06-14T05:51:56;18.47;;;11.67;;
6149;SDS011;3106;42.670;23.318;2023-06-14T05:54:23;30.93;;;17.00;;
6149;SDS011;3106;42.670;23.318;2023-06-14T05:56:50;17.90;;;11.60;;
6149;SDS011;3106;42.670;23.318;2023-06-14T05:59:18;23.03;;;11.30;;
6149;SDS011;3106;42.670;23.318;2023-06-14T06:01:44;18.90;;;12.67;;
6149;SDS011;3106;42.670;23.318;2023-06-14T06:04:11;18.50;;;12.00;;
6149;SDS011;3106;42.670;23.318;2023-06-14T06:06:38;23.23;;;15.50;;
6149;SDS011;3106;42.670;23.318;2023-06-14T06:09:05;23.40;;;12.87;;
6149;SDS011;3106;42.670;23.318;2023-06-14T06:11:32;27.13;;;12.83;;
6149;SDS011;3106;42.670;23.318;2023-06-14T06:13:58;18.90;;;11.70;;
6149;SDS011;3106;42.670;23.318;2023-06-14T06:16:26;22.43;;;14.57;;
6149;SDS011;3106;42.670;23.318;2023-06-14T06:18:53;26.53;;;13.40;;
6149;SDS011;3106;42.670;23.318;2023-06-14T06:21:20;30.80;;;12.40;;
6149;SDS011;3106;42.670;23.318;2023-06-14T06:23:47;16.60;;;11.53;;
6149;SDS011;3106;42.670;23.318;2023-06-14T06:26:13;16.53;;;12.80;;
6149;SDS011;3106;42.670;23.318;2023-06-14T06:28:40;21.23;;;14.00;;
6149;SDS011;3106;42.670;23.318;2023-06-14T06:31:07;24.83;;;13.00;;
6149;SDS011;3106;42.670;23.318;2023-06-14T06:33:35;26.43;;;13.17;;
6149;SDS011;3106;42.670;23.318;2023-06-14T06:36:02;18.00;;;12.57;;
6149;SDS011;3106;42.670;23.318;2023-06-14T06:38:29;20.17;;;12.80;;
6149;SDS011;3106;42.670;23.318;2023-06-14T06:40:57;19.20;;;11.97;;
6149;SDS011;3106;42.670;23.318;2023-06-14T06:43:24;21.10;;;13.30;;
6149;SDS011;3106;42.670;23.318;2023-06-14T06:45:51;21.33;;;13.93;;
6149;SDS011;3106;42.670;23.318;2023-06-14T06:48:18;18.67;;;13.70;;
6149;SDS011;3106;42.670;23.318;2023-06-14T06:50:46;26.00;;;13.43;;
6149;SDS011;3106;42.670;23.318;2023-06-14T06:53:12;23.30;;;13.17;;
6149;SDS011;3106;42.670;23.318;2023-06-14T06:55:41;20.87;;;13.80;;
6149;SDS011;3106;42.670;23.318;2023-06-14T06:58:08;21.47;;;13.53;;
6149;SDS011;3106;42.670;23.318;2023-06-14T07:00:36;32.10;;;13.40;;
6149;SDS011;3106;42.670;23.318;2023-06-14T07:03:03;24.50;;;14.40;;
6149;SDS011;3106;42.670;23.318;2023-06-14T07:05:30;32.17;;;14.23;;
6149;SDS011;3106;42.670;23.318;2023-06-14T07:07:58;23.93;;;15.30;;
6149;SDS011;3106;42.670;23.318;2023-06-14T07:10:25;41.20;;;17.70;;
6149;SDS011;3106;42.670;23.318;2023-06-14T07:12:53;34.33;;;14.20;;
6149;SDS011;3106;42.670;23.318;2023-06-14T07:15:20;70.80;;;39.63;;
6149;SDS011;3106;42.670;23.318;2023-06-14T07:17:48;28.40;;;14.10;;
6149;SDS011;3106;42.670;23.318;2023-06-14T07:20:15;53.90;;;15.67;;
6149;SDS011;3106;42.670;23.318;2023-06-14T07:22:42;21.60;;;12.43;;
6149;SDS011;3106;42.670;23.318;2023-06-14T07:25:11;24.13;;;12.23;;
6149;SDS011;3106;42.670;23.318;2023-06-14T07:27:39;30.33;;;14.00;;
6149;SDS011;3106;42.670;23.318;2023-06-14T07:30:07;22.20;;;11.90;;
6149;SDS011;3106;42.670;23.318;2023-06-14T07:32:35;18.70;;;11.50;;
6149;SDS011;3106;42.670;23.318;2023-06-14T07:35:02;21.77;;;11.77;;
6149;SDS011;3106;42.670;23.318;2023-06-14T07:37:29;25.97;;;12.77;;
6149;SDS011;3106;42.670;23.318;2023-06-14T07:39:57;22.40;;;14.00;;
6149;SDS011;3106;42.670;23.318;2023-06-14T07:42:25;20.00;;;13.73;;
6149;SDS011;3106;42.670;23.318;2023-06-14T07:44:52;20.60;;;12.30;;
6149;SDS011;3106;42.670;23.318;2023-06-14T07:47:19;21.93;;;13.70;;
6149;SDS011;3106;42.670;23.318;2023-06-14T07:49:46;18.20;;;12.50;;
6149;SDS011;3106;42.670;23.318;2023-06-14T07:52:12;15.40;;;11.60;;
6149;SDS011;3106;42.670;23.318;2023-06-14T07:54:39;28.53;;;13.13;;
6149;SDS011;3106;42.670;23.318;2023-06-14T07:57:06;12.70;;;10.00;;
6149;SDS011;3106;42.670;23.318;2023-06-14T07:59:35;32.70;;;11.60;;
6149;SDS011;3106;42.670;23.318;2023-06-14T08:02:02;22.43;;;11.27;;
6149;SDS011;3106;42.670;23.318;2023-06-14T08:04:28;20.67;;;11.50;;
6149;SDS011;3106;42.670;23.318;2023-06-14T08:06:56;17.10;;;11.90;;
6149;SDS011;3106;42.670;23.318;2023-06-14T08:09:22;18.73;;;11.47;;
6149;SDS011;3106;42.670;23.318;2023-06-14T08:11:50;17.17;;;10.83;;
6149;SDS011;3106;42.670;23.318;2023-06-14T08:14:16;17.27;;;11.50;;
6149;SDS011;3106;42.670;23.318;2023-06-14T08:16:45;29.80;;;13.30;;
6149;SDS011;3106;42.670;23.318;2023-06-14T08:19:11;14.43;;;10.00;;
6149;SDS011;3106;42.670;23.318;2023-06-14T08:21:38;16.03;;;10.80;;
6149;SDS011;3106;42.670;23.318;2023-06-14T08:24:05;19.07;;;11.00;;
6149;SDS011;3106;42.670;23.318;2023-06-14T08:26:32;21.30;;;11.40;;
6149;SDS011;3106;42.670;23.318;2023-06-14T08:28:59;18.53;;;11.80;;
6149;SDS011;3106;42.670;23.318;2023-06-14T08:31:26;31.10;;;12.87;;
6149;SDS011;3106;42.670;23.318;2023-06-14T08:33:54;33.13;;;13.20;;
6149;SDS011;3106;42.670;23.318;2023-06-14T08:36:21;33.23;;;18.97;;
6149;SDS011;3106;42.670;23.318;2023-06-14T08:38:48;35.87;;;19.47;;
6149;SDS011;3106;42.670;23.318;2023-06-14T08:41:17;27.27;;;16.70;;
6149;SDS011;3106;42.670;23.318;2023-06-14T08:43:52;20.80;;;13.37;;
6149;SDS011;3106;42.670;23.318;2023-06-14T08:46:19;21.43;;;14.67;;
6149;SDS011;3106;42.670;23.318;2023-06-14T08:48:47;22.20;;;13.77;;
6149;SDS011;3106;42.670;23.318;2023-06-14T08:51:23;23.93;;;13.13;;
6149;SDS011;3106;42.670;23.318;2023-06-14T08:53:52;17.37;;;12.00;;
6149;SDS011;3106;42.670;23.318;2023-06-14T08:56:22;17.53;;;11.47;;
6149;SDS011;3106;42.670;23.318;2023-06-14T08:58:51;21.27;;;11.90;;
6149;SDS011;3106;42.670;23.318;2023-06-14T09:01:18;18.23;;;12.23;;
6149;SDS011;3106;42.670;23.318;2023-06-14T09:03:47;20.83;;;13.10;;
6149;SDS011;3106;42.670;23.318;2023-06-14T09:06:15;16.57;;;12.70;;
6149;SDS011;3106;42.670;23.318;2023-06-14T09:11:34;20.80;;;12.77;;
6149;SDS011;3106;42.670;23.318;2023-06-14T09:14:01;17.83;;;11.73;;
6149;SDS011;3106;42.670;23.318;2023-06-14T09:16:28;23.33;;;12.10;;
6149;SDS011;3106;42.670;23.318;2023-06-14T09:18:55;15.90;;;12.50;;
6149;SDS011;3106;42.670;23.318;2023-06-14T09:21:22;17.20;;;11.70;;
6149;SDS011;3106;42.670;23.318;2023-06-14T09:23:49;15.40;;;11.47;;
6149;SDS011;3106;42.670;23.318;2023-06-14T09:26:18;20.07;;;11.87;;
6149;SDS011;3106;42.670;23.318;2023-06-14T09:28:46;13.30;;;10.33;;
6149;SDS011;3106;42.670;23.318;2023-06-14T09:31:13;13.57;;;10.40;;
6149;SDS011;3106;42.670;23.318;2023-06-14T09:33:41;22.80;;;10.80;;
6149;SDS011;3106;42.670;23.318;2023-06-14T09:36:14;16.40;;;10.97;;
6149;SDS011;3106;42.670;23.318;2023-06-14T09:38:42;14.73;;;11.27;;
6149;SDS011;3106;42.670;23.318;2023-06-14T09:41:18;16.87;;;10.67;;
6149;SDS011;3106;42.670;23.318;2023-06-14T09:43:46;16.93;;;10.10;;
6149;SDS011;3106;42.670;23.318;2023-06-14T09:46:13;21.40;;;10.57;;
6149;SDS011;3106;42.670;23.318;2023-06-14T09:48:41;16.17;;;11.37;;
6149;SDS011;3106;42.670;23.318;2023-06-14T09:51:08;17.00;;;11.13;;
6149;SDS011;3106;42.670;23.318;2023-06-14T09:53:36;18.50;;;11.70;;
6149;SDS011;3106;42.670;23.318;2023-06-14T09:56:04;15.50;;;10.80;;
6149;SDS011;3106;42.670;23.318;2023-06-14T09:58:33;16.40;;;11.40;;
6149;SDS011;3106;42.670;23.318;2023-06-14T10:01:05;15.77;;;11.13;;
6149;SDS011;3106;42.670;23.318;2023-06-14T10:03:38;17.00;;;11.57;;
6149;SDS011;3106;42.670;23.318;2023-06-14T10:06:07;17.53;;;10.90;;
6149;SDS011;3106;42.670;23.318;2023-06-14T10:08:35;14.53;;;10.00;;
6149;SDS011;3106;42.670;23.318;2023-06-14T10:11:04;13.77;;;10.73;;
6149;SDS011;3106;42.670;23.318;2023-06-14T10:13:32;16.93;;;11.33;;
6149;SDS011;3106;42.670;23.318;2023-06-14T10:16:09;21.73;;;11.77;;
6149;SDS011;3106;42.670;23.318;2023-06-14T10:18:41;32.40;;;13.33;;
6149;SDS011;3106;42.670;23.318;2023-06-14T10:21:16;18.07;;;11.27;;
6149;SDS011;3106;42.670;23.318;2023-06-14T10:23:48;33.40;;;11.50;;
6149;SDS011;3106;42.670;23.318;2023-06-14T10:26:20;16.50;;;11.20;;
6149;SDS011;3106;42.670;23.318;2023-06-14T10:29:00;15.23;;;10.90;;
6149;SDS011;3106;42.670;23.318;2023-06-14T10:31:41;21.23;;;11.23;;
6149;SDS011;3106;42.670;23.318;2023-06-14T10:34:09;26.83;;;12.40;;
6149;SDS011;3106;42.670;23.318;2023-06-14T10:36:37;81.53;;;17.20;;
6149;SDS011;3106;42.670;23.318;2023-06-14T10:39:06;21.20;;;10.87;;
6149;SDS011;3106;42.670;23.318;2023-06-14T10:41:35;17.50;;;11.63;;
6149;SDS011;3106;42.670;23.318;2023-06-14T10:46:59;24.23;;;12.03;;
6149;SDS011;3106;42.670;23.318;2023-06-14T10:49:37;13.97;;;10.20;;
6149;SDS011;3106;42.670;23.318;2023-06-14T10:52:10;37.00;;;16.03;;
6149;SDS011;3106;42.670;23.318;2023-06-14T10:57:29;19.77;;;11.50;;
6149;SDS011;3106;42.670;23.318;2023-06-14T10:59:58;19.20;;;13.13;;
6149;SDS011;3106;42.670;23.318;2023-06-14T11:02:36;16.77;;;11.73;;
6149;SDS011;3106;42.670;23.318;2023-06-14T11:05:42;20.73;;;12.57;;
6149;SDS011;3106;42.670;23.318;2023-06-14T11:11:20;17.00;;;11.10;;
6149;SDS011;3106;42.670;23.318;2023-06-14T11:13:48;17.67;;;11.07;;
6149;SDS011;3106;42.670;23.318;2023-06-14T11:16:18;13.17;;;9.90;;
6149;SDS011;3106;42.670;23.318;2023-06-14T11:18:45;16.20;;;9.60;;
6149;SDS011;3106;42.670;23.318;2023-06-14T11:21:15;15.03;;;10.43;;
6149;SDS011;3106;42.670;23.318;2023-06-14T11:23:48;16.10;;;9.97;;
6149;SDS011;3106;42.670;23.318;2023-06-14T11:26:15;17.77;;;10.10;;
6149;SDS011;3106;42.670;23.318;2023-06-14T11:28:42;12.73;;;9.50;;
6149;SDS011;3106;42.670;23.318;2023-06-14T11:31:09;18.33;;;10.47;;
6149;SDS011;3106;42.670;23.318;2023-06-14T11:33:37;18.93;;;10.20;;
6149;SDS011;3106;42.670;23.318;2023-06-14T11:36:05;15.53;;;9.80;;
6149;SDS011;3106;42.670;23.318;2023-06-14T11:38:34;17.20;;;9.87;;
6149;SDS011;3106;42.670;23.318;2023-06-14T11:41:02;13.70;;;9.20;;
6149;SDS011;3106;42.670;23.318;2023-06-14T11:43:29;15.80;;;9.67;;
6149;SDS011;3106;42.670;23.318;2023-06-14T11:45:59;11.10;;;8.70;;
6149;SDS011;3106;42.670;23.318;2023-06-14T11:48:36;13.47;;;10.00;;
6149;SDS011;3106;42.670;23.318;2023-06-14T11:51:04;14.00;;;9.73;;
6149;SDS011;3106;42.670;23.318;2023-06-14T11:53:31;11.90;;;9.07;;
6149;SDS011;3106;42.670;23.318;2023-06-14T11:55:58;12.67;;;9.30;;
6149;SDS011;3106;42.670;23.318;2023-06-14T11:58:25;19.17;;;9.40;;
6149;SDS011;3106;42.670;23.318;2023-06-14T12:00:52;11.93;;;9.07;;
6149;SDS011;3106;42.670;23.318;2023-06-14T12:03:22;16.73;;;8.87;;
6149;SDS011;3106;42.670;23.318;2023-06-14T12:05:51;11.33;;;8.23;;
6149;SDS011;3106;42.670;23.318;2023-06-14T12:08:32;11.87;;;8.53;;
6149;SDS011;3106;42.670;23.318;2023-06-14T12:11:03;14.90;;;9.23;;
6149;SDS011;3106;42.670;23.318;2023-06-14T12:13:30;11.83;;;8.77;;
6149;SDS011;3106;42.670;23.318;2023-06-14T12:15:58;10.80;;;7.40;;
6149;SDS011;3106;42.670;23.318;2023-06-14T12:18:31;13.23;;;7.80;;
6149;SDS011;3106;42.670;23.318;2023-06-14T12:21:00;15.37;;;9.00;;
6149;SDS011;3106;42.670;23.318;2023-06-14T12:26:19;9.70;;;8.07;;
6149;SDS011;3106;42.670;23.318;2023-06-14T12:28:46;12.33;;;7.80;;
6149;SDS011;3106;42.670;23.318;2023-06-14T12:31:14;7.87;;;6.87;;
6149;SDS011;3106;42.670;23.318;2023-06-14T12:33:42;13.87;;;7.50;;
6149;SDS011;3106;42.670;23.318;2023-06-14T12:36:12;9.90;;;7.07;;
6149;SDS011;3106;42.670;23.318;2023-06-14T12:38:38;13.77;;;7.43;;
6149;SDS011;3106;42.670;23.318;2023-06-14T12:41:05;14.23;;;7.90;;
6149;SDS011;3106;42.670;23.318;2023-06-14T12:43:32;9.87;;;6.93;;
6149;SDS011;3106;42.670;23.318;2023-06-14T12:45:59;9.70;;;7.30;;
6149;SDS011;3106;42.670;23.318;2023-06-14T12:48:26;12.70;;;8.00;;
6149;SDS011;3106;42.670;23.318;2023-06-14T12:50:54;12.10;;;8.30;;
6149;SDS011;3106;42.670;23.318;2023-06-14T12:53:23;12.67;;;7.97;;
6149;SDS011;3106;42.670;23.318;2023-06-14T12:55:50;16.43;;;8.07;;
6149;SDS011;3106;42.670;23.318;2023-06-14T12:58:17;17.57;;;7.67;;
6149;SDS011;3106;42.670;23.318;2023-06-14T13:00:44;10.70;;;6.80;;
6149;SDS011;3106;42.670;23.318;2023-06-14T13:03:11;7.43;;;6.67;;
6149;SDS011;3106;42.670;23.318;2023-06-14T13:05:38;14.50;;;7.80;;
6149;SDS011;3106;42.670;23.318;2023-06-14T13:08:06;20.10;;;12.53;;
6149;SDS011;3106;42.670;23.318;2023-06-14T13:10:35;10.03;;;8.47;;
6149;SDS011;3106;42.670;23.318;2023-06-14T13:13:02;10.73;;;7.57;;
6149;SDS011;3106;42.670;23.318;2023-06-14T13:15:29;12.10;;;8.03;;
6149;SDS011;3106;42.670;23.318;2023-06-14T13:17:56;9.43;;;7.30;;
6149;SDS011;3106;42.670;23.318;2023-06-14T13:20:22;9.10;;;7.30;;
6149;SDS011;3106;42.670;23.318;2023-06-14T13:22:49;8.43;;;6.80;;
6149;SDS011;3106;42.670;23.318;2023-06-14T13:25:16;11.87;;;7.70;;
6149;SDS011;3106;42.670;23.318;2023-06-14T13:27:44;10.63;;;6.80;;
6149;SDS011;3106;42.670;23.318;2023-06-14T13:30:11;12.47;;;7.50;;
6149;SDS011;3106;42.670;23.318;2023-06-14T13:32:38;10.47;;;6.63;;
6149;SDS011;3106;42.670;23.318;2023-06-14T13:35:05;13.13;;;8.87;;
6149;SDS011;3106;42.670;23.318;2023-06-14T13:37:32;10.60;;;6.97;;
6149;SDS011;3106;42.670;23.318;2023-06-14T13:39:59;11.40;;;7.70;;
6149;SDS011;3106;42.670;23.318;2023-06-14T13:42:25;14.37;;;7.20;;
6149;SDS011;3106;42.670;23.318;2023-06-14T13:44:57;13.83;;;8.20;;
6149;SDS011;3106;42.670;23.318;2023-06-14T13:47:24;13.27;;;7.70;;
6149;SDS011;3106;42.670;23.318;2023-06-14T13:49:51;11.27;;;7.90;;
6149;SDS011;3106;42.670;23.318;2023-06-14T13:52:18;13.30;;;8.27;;
6149;SDS011;3106;42.670;23.318;2023-06-14T13:54:44;12.83;;;8.30;;
6149;SDS011;3106;42.670;23.318;2023-06-14T13:57:11;12.37;;;8.90;;
6149;SDS011;3106;42.670;23.318;2023-06-14T13:59:38;12.17;;;8.80;;
6149;SDS011;3106;42.670;23.318;2023-06-14T14:02:06;15.43;;;8.70;;
6149;SDS011;3106;42.670;23.318;2023-06-14T14:04:33;18.23;;;9.07;;
6149;SDS011;3106;42.670;23.318;2023-06-14T14:07:01;11.37;;;8.27;;
6149;SDS011;3106;42.670;23.318;2023-06-14T14:09:28;13.73;;;8.90;;
6149;SDS011;3106;42.670;23.318;2023-06-14T14:11:55;13.23;;;8.80;;
6149;SDS011;3106;42.670;23.318;2023-06-14T14:14:22;16.27;;;7.60;;
6149;SDS011;3106;42.670;23.318;2023-06-14T14:16:49;12.87;;;7.40;;
6149;SDS011;3106;42.670;23.318;2023-06-14T14:19:17;10.00;;;7.73;;
6149;SDS011;3106;42.670;23.318;2023-06-14T14:21:44;8.87;;;7.10;;
6149;SDS011;3106;42.670;23.318;2023-06-14T14:24:11;12.30;;;7.87;;
6149;SDS011;3106;42.670;23.318;2023-06-14T14:26:38;9.30;;;6.83;;
6149;SDS011;3106;42.670;23.318;2023-06-14T14:29:05;11.10;;;8.00;;
6149;SDS011;3106;42.670;23.318;2023-06-14T14:31:32;9.40;;;7.00;;
6149;SDS011;3106;42.670;23.318;2023-06-14T14:36:45;8.53;;;5.57;;
6149;SDS011;3106;42.670;23.318;2023-06-14T14:39:12;7.87;;;6.40;;
6149;SDS011;3106;42.670;23.318;2023-06-14T14:41:39;10.60;;;7.73;;
6149;SDS011;3106;42.670;23.318;2023-06-14T14:44:06;8.87;;;7.03;;
6149;SDS011;3106;42.670;23.318;2023-06-14T14:46:33;12.80;;;8.20;;
6149;SDS011;3106;42.670;23.318;2023-06-14T14:48:59;14.90;;;9.10;;
6149;SDS011;3106;42.670;23.318;2023-06-14T14:51:26;10.40;;;8.23;;
6149;SDS011;3106;42.670;23.318;2023-06-14T14:53:54;12.53;;;8.13;;
6149;SDS011;3106;42.670;23.318;2023-06-14T14:56:22;13.60;;;7.70;;
6149;SDS011;3106;42.670;23.318;2023-06-14T14:58:49;15.37;;;8.47;;
6149;SDS011;3106;42.670;23.318;2023-06-14T15:01:15;15.23;;;9.90;;
6149;SDS011;3106;42.670;23.318;2023-06-14T15:03:43;14.73;;;9.07;;
6149;SDS011;3106;42.670;23.318;2023-06-14T15:06:10;21.60;;;9.20;;
6149;SDS011;3106;42.670;23.318;2023-06-14T15:08:36;17.30;;;11.70;;